Time;durP1;ratioP1;P1;durP2;ratioP2;P2;SDS_P1;SDS_P2;PMS_P1;PMS_P2;Temp;Humidity;BMP_temperature;BMP_pressure;BME280_temperature;BME280_humidity;BME280_pressure;Samples;Min_cycle;Max_cycle;Signal;HPM_P1;HPM_P2
2022/12/17 13:07:04;;;;;;;50.25;33.28;;;-1.50;99.90;;;;;;5019876;28;20281;-70
2022/12/17 13:09:37;;;;;;;63.95;36.22;;;-1.50;99.90;;;;;;5011977;28;20231;-69
2022/12/17 13:12:20;;;;;;;64.78;37.05;;;-1.50;99.90;;;;;;5007908;28;20207;-73
2022/12/17 13:14:54;;;;;;;66.88;36.47;;;-1.70;99.90;;;;;;5013204;28;20201;-70
2022/12/17 13:17:32;;;;;;;53.90;32.85;;;-1.60;99.90;;;;;;5010564;28;20613;-70
2022/12/17 13:20:04;;;;;;;66.55;36.33;;;-1.40;99.90;;;;;;4997166;28;20228;-72
2022/12/17 13:22:33;;;;;;;53.80;35.15;;;-1.60;99.90;;;;;;5017369;28;20247;-69
2022/12/17 13:25:16;;;;;;;68.75;35.50;;;-1.60;99.90;;;;;;5013359;28;20611;-73
2022/12/17 13:27:44;;;;;;;70.50;37.83;;;-1.60;99.90;;;;;;5021414;28;20284;-69
2022/12/17 13:30:29;;;;;;;66.30;36.72;;;-1.60;99.90;;;;;;5023623;28;20303;-67
2022/12/17 13:33:14;;;;;;;66.72;37.03;;;-1.60;99.90;;;;;;5016776;28;20193;-70
2022/12/17 13:35:52;;;;;;;66.60;34.22;;;-1.50;99.90;;;;;;5026684;28;20235;-71
2022/12/17 13:38:26;;;;;;;62.08;33.83;;;-1.40;99.90;;;;;;5012424;28;20283;-70
2022/12/17 13:41:05;;;;;;;67.95;35.08;;;-1.30;99.90;;;;;;5006145;28;20278;-69
2022/12/17 13:43:38;;;;;;;73.20;34.35;;;-1.30;99.90;;;;;;5001844;28;20615;-71
2022/12/17 13:46:05;;;;;;;59.42;35.03;;;-1.30;99.90;;;;;;5016704;28;20211;-69
2022/12/17 13:48:32;;;;;;;57.92;33.17;;;-1.20;99.90;;;;;;5016748;28;20328;-70
2022/12/17 13:51:02;;;;;;;53.78;31.65;;;-1.20;99.90;;;;;;5012985;28;20252;-70
2022/12/17 13:53:32;;;;;;;64.13;35.55;;;-1.30;99.90;;;;;;5016963;28;20197;-69
2022/12/17 13:56:00;;;;;;;57.13;30.85;;;-1.20;99.90;;;;;;5012354;28;20215;-70
2022/12/17 13:58:29;;;;;;;61.60;36.92;;;-1.20;99.90;;;;;;5004508;28;20445;-75
2022/12/17 14:01:07;;;;;;;60.97;33.03;;;-1.30;99.90;;;;;;5012609;28;20332;-67
2022/12/17 14:03:48;;;;;;;56.80;31.05;;;-1.40;99.90;;;;;;5024258;28;20196;-71
2022/12/17 14:06:17;;;;;;;58.47;33.75;;;-1.60;99.90;;;;;;5008616;28;20205;-70
2022/12/17 14:08:45;;;;;;;60.22;30.90;;;-1.60;99.90;;;;;;5006444;28;20658;-69
2022/12/17 14:13:57;;;;;;;59.72;30.27;;;-1.50;99.90;;;;;;5022305;28;20233;-71
2022/12/17 14:16:24;;;;;;;61.17;33.25;;;-1.60;99.90;;;;;;5025332;28;20235;-68
2022/12/17 14:18:53;;;;;;;51.15;30.52;;;-1.60;99.90;;;;;;5014099;28;20197;-69
2022/12/17 14:21:22;;;;;;;58.00;28.45;;;-1.40;99.90;;;;;;5020121;28;20202;-71
2022/12/17 14:23:52;;;;;;;62.25;31.45;;;-1.30;99.90;;;;;;5021206;28;20216;-67
2022/12/17 14:26:20;;;;;;;52.28;27.83;;;-1.40;99.90;;;;;;5024086;28;20204;-68
2022/12/17 14:28:48;;;;;;;47.58;28.40;;;-1.30;99.90;;;;;;5016167;28;20686;-67
2022/12/17 14:31:21;;;;;;;61.63;32.30;;;-1.30;99.90;;;;;;5019503;28;20208;-70
2022/12/17 14:34:00;;;;;;;53.85;29.25;;;-1.40;99.90;;;;;;5017842;28;20640;-70
2022/12/17 14:36:30;;;;;;;51.25;28.08;;;-1.30;99.90;;;;;;5011399;28;20201;-66
2022/12/17 14:38:59;;;;;;;47.03;28.35;;;-1.30;99.90;;;;;;5009843;28;20205;-71
2022/12/17 14:44:18;;;;;;;47.78;26.95;;;-1.40;99.90;;;;;;5020281;28;20223;-69
2022/12/17 14:46:45;;;;;;;56.30;30.08;;;-1.40;99.90;;;;;;5017045;28;20214;-69
2022/12/17 14:49:17;;;;;;;49.53;29.02;;;-1.50;99.90;;;;;;5012476;28;20308;-68
2022/12/17 14:51:47;;;;;;;54.92;30.02;;;-1.60;99.90;;;;;;5020851;28;20204;-70
2022/12/17 14:54:21;;;;;;;63.55;35.20;;;-1.50;99.90;;;;;;5024192;28;20289;-70
2022/12/17 14:56:49;;;;;;;69.63;30.30;;;-1.70;99.90;;;;;;5013356;28;20256;-71
2022/12/17 14:59:24;;;;;;;64.97;30.77;;;-1.70;99.90;;;;;;5019897;28;20224;-70
2022/12/17 15:01:52;;;;;;;59.45;31.48;;;-1.80;99.90;;;;;;5080069;22;20246;-83
2022/12/17 15:04:20;;;;;;;59.03;30.63;;;-1.80;99.90;;;;;;5068556;28;20223;-85
2022/12/17 15:06:48;;;;;;;61.05;30.02;;;-1.80;99.90;;;;;;5065900;28;20214;-84
2022/12/17 15:09:15;;;;;;;55.45;30.50;;;-1.80;99.90;;;;;;5065600;28;20306;-83
2022/12/17 15:11:42;;;;;;;61.42;31.40;;;-1.90;99.90;;;;;;5075056;28;20238;-83
2022/12/17 15:14:09;;;;;;;70.72;34.50;;;-1.80;99.90;;;;;;5061512;28;20287;-83
2022/12/17 15:16:36;;;;;;;64.13;30.83;;;-1.80;99.90;;;;;;5065587;28;20348;-86
2022/12/17 15:19:03;;;;;;;53.47;29.73;;;-1.60;99.90;;;;;;5049207;28;20210;-84
2022/12/17 15:21:30;;;;;;;63.75;34.38;;;-1.70;99.90;;;;;;5047384;28;20223;-84
2022/12/17 15:23:58;;;;;;;70.03;34.00;;;-1.70;99.90;;;;;;5056395;28;20204;-85
2022/12/17 15:26:25;;;;;;;67.55;32.97;;;-1.70;99.90;;;;;;5059791;28;20271;-83
2022/12/17 15:28:52;;;;;;;61.53;33.28;;;-1.80;99.90;;;;;;5059093;28;20246;-85
2022/12/17 15:31:19;;;;;;;60.00;32.70;;;-1.80;99.90;;;;;;5062312;28;20610;-86
2022/12/17 15:33:46;;;;;;;76.20;35.17;;;-1.80;99.90;;;;;;5064559;28;20285;-84
2022/12/17 15:36:13;;;;;;;69.65;36.08;;;-1.80;99.90;;;;;;5066776;28;20204;-84
2022/12/17 15:38:40;;;;;;;68.30;33.40;;;-1.80;99.90;;;;;;5060795;28;20268;-84
2022/12/17 15:43:52;;;;;;;66.07;36.03;;;-1.60;99.90;;;;;;5044545;28;20203;-85
2022/12/17 15:46:19;;;;;;;68.30;35.17;;;-1.70;99.90;;;;;;5070133;28;20234;-84
2022/12/17 15:48:46;;;;;;;72.32;37.22;;;-1.80;99.90;;;;;;5072998;28;20227;-85
2022/12/17 15:51:12;;;;;;;77.18;37.13;;;-1.90;99.90;;;;;;5071083;28;20215;-85
2022/12/17 15:53:39;;;;;;;77.35;37.10;;;-1.80;99.90;;;;;;5059083;28;20264;-84
2022/12/17 15:56:17;;;;;;;75.75;35.38;;;-1.80;99.90;;;;;;5059303;28;20299;-84
2022/12/17 15:58:44;;;;;;;71.30;37.40;;;-1.80;99.90;;;;;;5055410;28;20679;-84
2022/12/17 16:01:11;;;;;;;80.88;34.58;;;-1.80;99.90;;;;;;5069964;28;20246;-83
2022/12/17 16:03:37;;;;;;;71.93;37.40;;;-1.90;99.90;;;;;;5060618;28;20200;-84
2022/12/17 16:06:05;;;;;;;70.88;36.63;;;-2.10;99.90;;;;;;5075553;28;20626;-84
2022/12/17 16:08:32;;;;;;;70.10;33.97;;;-2.20;99.90;;;;;;5077441;28;20250;-84
2022/12/17 16:10:59;;;;;;;65.95;35.22;;;-2.20;99.90;;;;;;5077511;28;20250;-83
2022/12/17 16:13:27;;;;;;;68.63;34.60;;;-2.20;99.90;;;;;;5074009;28;20200;-82
2022/12/17 16:15:56;;;;;;;75.35;35.97;;;-2.10;99.90;;;;;;5072427;28;20276;-85
2022/12/17 16:18:23;;;;;;;72.80;35.42;;;-2.20;99.90;;;;;;5078569;28;20200;-83
2022/12/17 16:20:50;;;;;;;76.03;37.42;;;-2.30;99.90;;;;;;5077664;28;20235;-85
2022/12/17 16:23:17;;;;;;;60.50;32.85;;;-2.30;99.90;;;;;;5066606;28;20222;-84
2022/12/17 16:25:44;;;;;;;76.00;36.17;;;-2.20;99.90;;;;;;5063914;28;20197;-85
2022/12/17 16:28:11;;;;;;;67.32;35.95;;;-2.30;99.90;;;;;;5057859;28;20215;-85
2022/12/17 16:30:39;;;;;;;74.53;33.92;;;-2.30;99.90;;;;;;5061049;28;20235;-83
2022/12/17 16:33:06;;;;;;;63.00;34.03;;;-2.40;99.90;;;;;;5071148;28;20211;-82
2022/12/17 16:35:33;;;;;;;64.80;31.77;;;-2.30;99.90;;;;;;5064573;28;20268;-83
2022/12/17 16:38:00;;;;;;;71.30;34.08;;;-2.30;99.90;;;;;;5060636;28;20271;-84
2022/12/17 16:40:28;;;;;;;71.53;33.75;;;-2.40;99.90;;;;;;5069770;28;20310;-84
2022/12/17 16:42:56;;;;;;;68.82;35.15;;;-2.60;99.90;;;;;;5067583;28;20686;-84
2022/12/17 16:45:22;;;;;;;68.65;32.97;;;-2.60;99.90;;;;;;5070315;28;20207;-83
2022/12/17 16:47:50;;;;;;;71.38;37.72;;;-2.50;99.90;;;;;;5071543;28;20287;-86
2022/12/17 16:50:17;;;;;;;74.15;36.33;;;-2.40;99.90;;;;;;5075313;28;20226;-83
2022/12/17 16:52:44;;;;;;;76.43;37.70;;;-2.30;99.90;;;;;;5075166;28;20238;-84
2022/12/17 16:55:11;;;;;;;78.20;37.88;;;-2.40;99.90;;;;;;5065150;28;20199;-83
2022/12/17 16:57:38;;;;;;;78.95;37.92;;;-2.30;99.90;;;;;;5061953;28;20267;-84
2022/12/17 17:00:06;;;;;;;73.35;35.25;;;-2.50;99.90;;;;;;5059511;28;20239;-84
2022/12/17 17:02:33;;;;;;;78.22;35.35;;;-2.60;99.90;;;;;;5079162;28;20203;-83
2022/12/17 17:05:01;;;;;;;71.80;36.20;;;-2.60;99.90;;;;;;5069637;28;20239;-84
2022/12/17 17:07:28;;;;;;;72.60;37.92;;;-2.40;99.90;;;;;;5071021;28;20227;-84
2022/12/17 17:09:56;;;;;;;76.65;35.83;;;-2.40;99.90;;;;;;5087486;28;20261;-83
2022/12/17 17:12:25;;;;;;;75.78;38.15;;;-2.40;99.90;;;;;;5079315;28;20231;-84
2022/12/17 17:14:52;;;;;;;71.63;35.28;;;-2.40;99.90;;;;;;5070306;28;20208;-84
2022/12/17 17:17:18;;;;;;;70.90;34.40;;;-2.30;99.90;;;;;;5074507;28;20222;-85
2022/12/17 17:19:45;;;;;;;70.78;32.35;;;-2.40;99.90;;;;;;5079670;28;20244;-85
2022/12/17 17:22:14;;;;;;;70.97;36.10;;;-2.40;99.90;;;;;;5085008;28;20227;-85
2022/12/17 17:24:40;;;;;;;72.55;35.25;;;-2.40;99.90;;;;;;5084244;28;20233;-85
2022/12/17 17:27:07;;;;;;;73.65;35.28;;;-2.80;99.90;;;;;;5075761;28;20208;-84
2022/12/17 17:29:34;;;;;;;66.88;33.88;;;-2.80;99.90;;;;;;5068858;28;20216;-84
2022/12/17 17:32:01;;;;;;;73.80;35.53;;;-2.80;99.90;;;;;;5074916;28;20263;-85
2022/12/17 17:34:28;;;;;;;70.90;33.80;;;-2.80;99.90;;;;;;5062990;28;20283;-84
2022/12/17 17:36:55;;;;;;;68.32;34.15;;;-3.00;99.90;;;;;;5078170;28;20199;-84
2022/12/17 17:39:23;;;;;;;73.00;34.60;;;-3.00;99.90;;;;;;5074975;28;20277;-84
2022/12/17 17:41:54;;;;;;;70.25;34.33;;;-3.00;99.90;;;;;;5075723;28;20293;-86
2022/12/17 17:48:05;;;;;;;73.57;33.22;;;-3.30;99.90;;;;;;5052151;28;20657;-89
2022/12/17 17:58:01;;;;;;;83.65;36.33;;;-3.10;99.90;;;;;;4913174;29;20198;-87
2022/12/17 18:11:10;;;;;;;62.67;31.40;;;-3.20;99.90;;;;;;4924224;29;20241;-84
2022/12/17 18:13:54;;;;;;;62.72;29.55;;;-3.20;99.90;;;;;;4932827;28;20208;-87
2022/12/17 18:16:28;;;;;;;55.53;34.35;;;-3.10;99.90;;;;;;5054971;28;20196;-87
2022/12/17 18:18:57;;;;;;;60.38;32.03;;;-3.30;99.90;;;;;;5070301;28;20209;-87
2022/12/17 18:21:26;;;;;;;73.85;34.55;;;-3.30;99.90;;;;;;5078230;28;20233;-84
2022/12/17 18:23:59;;;;;;;62.97;37.00;;;-3.30;99.90;;;;;;5074741;28;20200;-86
2022/12/17 18:26:29;;;;;;;67.68;34.13;;;-3.50;99.90;;;;;;5061056;28;20205;-86
2022/12/17 18:29:01;;;;;;;58.38;33.70;;;-3.60;99.90;;;;;;5064407;28;20204;-86
2022/12/17 18:31:29;;;;;;;63.40;33.50;;;-3.60;99.90;;;;;;5053310;28;20216;-85
2022/12/17 18:33:57;;;;;;;74.22;37.75;;;-3.70;99.90;;;;;;5062231;28;20226;-86
2022/12/17 18:36:26;;;;;;;58.75;32.67;;;-3.50;99.90;;;;;;5060031;28;20203;-88
2022/12/17 18:38:56;;;;;;;64.93;35.08;;;-3.50;99.90;;;;;;5056189;28;20204;-84
2022/12/17 18:44:47;;;;;;;66.43;34.60;;;-3.60;99.90;;;;;;5026659;28;20207;-84
2022/12/17 18:47:15;;;;;;;78.10;34.78;;;-3.60;99.90;;;;;;5025444;28;20266;-84
2022/12/17 18:49:41;;;;;;;69.25;35.30;;;-3.70;99.90;;;;;;5076670;28;20246;-83
2022/12/17 18:52:08;;;;;;;72.72;36.10;;;-3.70;99.90;;;;;;5064450;28;20223;-83
2022/12/17 18:54:35;;;;;;;64.95;37.53;;;-3.80;99.90;;;;;;5061029;28;20291;-84
2022/12/17 18:57:03;;;;;;;70.25;35.97;;;-3.80;99.90;;;;;;5054045;28;20208;-84
2022/12/17 18:59:31;;;;;;;64.53;36.72;;;-3.90;99.90;;;;;;5063938;28;20204;-82
2022/12/17 19:01:58;;;;;;;72.63;42.88;;;-3.90;99.90;;;;;;5051583;28;20481;-82
2022/12/17 19:04:26;;;;;;;73.38;42.53;;;-3.90;99.90;;;;;;5068779;28;20864;-84
2022/12/17 19:06:53;;;;;;;68.13;39.70;;;-3.70;99.90;;;;;;5066867;28;20648;-82
2022/12/17 19:09:22;;;;;;;66.70;36.95;;;-3.70;99.90;;;;;;5056962;28;20668;-82
2022/12/17 19:11:49;;;;;;;67.55;37.83;;;-3.70;99.90;;;;;;5062810;28;20306;-82
2022/12/17 19:14:17;;;;;;;61.47;36.78;;;-3.70;99.90;;;;;;5065590;28;20197;-82
2022/12/17 19:16:44;;;;;;;60.60;38.58;;;-3.70;99.90;;;;;;5058132;28;20263;-83
2022/12/17 19:19:13;;;;;;;59.40;36.88;;;-3.70;99.90;;;;;;5061097;28;20200;-83
2022/12/17 19:21:40;;;;;;;73.15;40.72;;;-3.80;99.90;;;;;;5066619;28;20223;-81
2022/12/17 19:24:11;;;;;;;67.43;40.72;;;-3.80;99.90;;;;;;5068322;28;20210;-82
2022/12/17 19:26:38;;;;;;;72.03;37.67;;;-3.80;99.90;;;;;;5068387;28;20199;-82
2022/12/17 19:29:07;;;;;;;62.80;36.78;;;-3.90;99.90;;;;;;5051222;28;20223;-83
2022/12/17 19:31:35;;;;;;;76.85;38.53;;;-3.90;99.90;;;;;;5055982;28;20227;-82
2022/12/17 19:34:04;;;;;;;71.35;34.80;;;-3.90;99.90;;;;;;5066898;28;20219;-81
2022/12/17 19:36:32;;;;;;;68.50;38.33;;;-3.90;99.90;;;;;;5058089;28;20288;-81
2022/12/17 19:39:01;;;;;;;58.50;36.53;;;-3.90;99.90;;;;;;5067114;28;20284;-82
2022/12/17 19:41:30;;;;;;;75.15;40.08;;;-3.90;99.90;;;;;;5062730;28;20278;-81
2022/12/17 19:43:59;;;;;;;68.38;39.65;;;-3.80;99.90;;;;;;5077304;28;20203;-82
2022/12/17 19:46:27;;;;;;;64.22;36.15;;;-3.80;99.90;;;;;;5079536;28;20226;-81
2022/12/17 19:48:57;;;;;;;77.57;41.10;;;-3.90;99.90;;;;;;5079847;28;20200;-81
2022/12/17 19:51:25;;;;;;;62.70;38.65;;;-3.90;99.90;;;;;;5069632;28;20291;-81
2022/12/17 19:53:52;;;;;;;63.15;38.00;;;-4.00;99.90;;;;;;5057219;28;20247;-82
2022/12/17 19:56:22;;;;;;;63.22;37.45;;;-3.90;99.90;;;;;;5050572;28;20202;-83
2022/12/17 19:58:51;;;;;;;64.40;36.50;;;-3.90;99.90;;;;;;5059368;28;20239;-81
2022/12/17 20:01:20;;;;;;;65.70;39.65;;;-3.80;99.90;;;;;;5052303;28;20281;-83
2022/12/17 20:03:48;;;;;;;73.40;42.65;;;-3.80;99.90;;;;;;5057755;28;20295;-82
2022/12/17 20:06:18;;;;;;;65.10;38.40;;;-3.80;99.90;;;;;;5061819;28;20593;-82
2022/12/17 20:08:45;;;;;;;69.65;42.72;;;-3.90;99.90;;;;;;5046290;28;20212;-81
2022/12/17 20:14:16;;;;;;;66.80;39.63;;;-4.20;99.90;;;;;;5058711;28;20241;-85
2022/12/17 20:17:31;;;;;;;64.25;39.20;;;-4.30;99.90;;;;;;5083000;28;20254;-83
2022/12/17 20:19:58;;;;;;;66.78;38.42;;;-4.40;99.90;;;;;;5035912;28;20184;-87
2022/12/17 20:22:29;;;;;;;67.35;39.88;;;-4.50;99.90;;;;;;5082532;28;20310;-89
2022/12/17 20:24:58;;;;;;;77.22;43.35;;;-4.50;99.90;;;;;;5069572;28;20207;-86
2022/12/17 20:27:30;;;;;;;81.03;40.13;;;-4.60;99.90;;;;;;5080681;28;20217;-87
2022/12/17 20:29:57;;;;;;;69.60;40.38;;;-4.50;99.90;;;;;;5076209;28;20196;-86
2022/12/17 20:35:45;;;;;;;77.03;40.47;;;-4.60;99.90;;;;;;5052444;28;20220;-88
2022/12/17 20:38:13;;;;;;;62.35;36.83;;;-4.50;99.90;;;;;;5061599;22;20239;-71
2022/12/17 20:40:41;;;;;;;72.88;40.30;;;-4.60;99.90;;;;;;5026775;28;20300;-69
2022/12/17 20:43:08;;;;;;;65.43;37.78;;;-4.70;99.90;;;;;;5027572;28;20224;-69
2022/12/17 20:45:35;;;;;;;74.72;39.70;;;-4.70;99.90;;;;;;5028208;28;20233;-70
2022/12/17 20:48:02;;;;;;;59.20;37.80;;;-4.80;99.90;;;;;;5029239;28;20200;-69
2022/12/17 20:50:30;;;;;;;65.20;37.13;;;-4.80;99.90;;;;;;5029283;28;20319;-68
2022/12/17 20:52:58;;;;;;;67.57;38.08;;;-4.80;99.90;;;;;;5030859;28;20247;-69
2022/12/17 20:55:27;;;;;;;95.80;45.95;;;-4.80;99.90;;;;;;5035103;28;20192;-72
2022/12/17 20:57:54;;;;;;;85.95;44.55;;;-4.80;99.90;;;;;;5026385;28;20236;-70
2022/12/17 21:00:21;;;;;;;75.85;43.10;;;-4.80;99.90;;;;;;5027745;28;20232;-68
2022/12/17 21:02:48;;;;;;;67.78;39.90;;;-4.80;99.90;;;;;;5269551;23;20344;-68
2022/12/17 21:05:16;;;;;;;67.53;38.67;;;-4.80;99.90;;;;;;5048988;28;20328;-68
2022/12/17 21:07:43;;;;;;;63.63;37.97;;;-4.70;99.90;;;;;;5044945;28;20211;-71
2022/12/17 21:10:10;;;;;;;73.45;38.35;;;-4.70;99.90;;;;;;5047366;28;20239;-70
2022/12/17 21:15:31;;;;;;;70.00;37.85;;;-4.70;99.90;;;;;;5001629;28;20204;-71
2022/12/17 21:17:58;;;;;;;59.20;35.13;;;-4.70;99.90;;;;;;5023358;28;20690;-68
2022/12/17 21:20:25;;;;;;;63.33;36.42;;;-4.70;99.90;;;;;;5022614;28;20231;-70
2022/12/17 21:22:52;;;;;;;72.40;37.83;;;-4.60;99.90;;;;;;5025811;28;20215;-66
2022/12/17 21:25:19;;;;;;;64.72;38.63;;;-4.50;99.90;;;;;;5026036;28;20233;-69
2022/12/17 21:27:47;;;;;;;70.15;36.53;;;-4.50;99.90;;;;;;5024560;28;20282;-69
2022/12/17 21:30:14;;;;;;;56.25;34.22;;;-4.50;99.90;;;;;;5032513;28;20216;-67
2022/12/17 21:32:41;;;;;;;59.85;34.22;;;-4.60;99.90;;;;;;5032462;28;20211;-70
2022/12/17 21:35:08;;;;;;;60.55;34.20;;;-4.60;99.90;;;;;;5029059;28;20205;-68
2022/12/17 21:37:35;;;;;;;60.67;37.35;;;-4.50;99.90;;;;;;5017991;28;20201;-68
2022/12/17 21:40:02;;;;;;;66.82;36.15;;;-4.40;99.90;;;;;;5018943;28;20275;-70
2022/12/17 21:45:15;;;;;;;53.40;34.38;;;-4.30;99.90;;;;;;5027879;28;20230;-70
2022/12/17 21:47:41;;;;;;;56.22;33.53;;;-4.30;99.90;;;;;;5024348;28;20208;-67
2022/12/17 21:50:09;;;;;;;59.15;37.38;;;-4.20;99.90;;;;;;5018566;28;20231;-70
2022/12/17 21:52:36;;;;;;;62.72;35.92;;;-4.20;99.90;;;;;;5015477;28;20246;-68
2022/12/17 21:55:03;;;;;;;65.57;36.15;;;-4.20;99.90;;;;;;5019617;28;20204;-69
2022/12/17 21:57:30;;;;;;;58.70;37.00;;;-4.20;99.90;;;;;;5015104;28;20291;-67
2022/12/17 21:59:57;;;;;;;52.03;33.30;;;-4.30;99.90;;;;;;5013491;28;20296;-65
2022/12/17 22:02:25;;;;;;;61.80;37.22;;;-4.30;99.90;;;;;;5017244;28;20217;-69
2022/12/17 22:04:52;;;;;;;64.40;35.67;;;-4.40;99.90;;;;;;5017373;28;20208;-67
2022/12/17 22:07:19;;;;;;;64.00;38.47;;;-4.40;99.90;;;;;;5017440;28;20283;-70
2022/12/17 22:09:46;;;;;;;64.95;35.83;;;-4.40;99.90;;;;;;5021075;28;20216;-69
2022/12/17 22:14:57;;;;;;;52.03;33.10;;;-4.30;99.90;;;;;;5028554;28;20211;-68
2022/12/17 22:17:26;;;;;;;52.00;33.80;;;-4.20;99.90;;;;;;5036307;28;20657;-70
2022/12/17 22:19:53;;;;;;;62.35;34.45;;;-4.10;99.90;;;;;;5036373;28;20251;-71
2022/12/17 22:22:20;;;;;;;58.45;34.92;;;-4.20;99.90;;;;;;5036735;28;20196;-68
2022/12/17 22:24:47;;;;;;;61.40;34.55;;;-4.10;99.90;;;;;;5032665;28;20666;-70
2022/12/17 22:27:15;;;;;;;53.05;34.85;;;-4.30;99.90;;;;;;5025457;28;20203;-69
2022/12/17 22:35:12;;;;;;;49.42;31.40;;;-4.10;99.90;;;;;;5024592;28;20238;-67
2022/12/17 22:37:39;;;;;;;55.55;34.30;;;-4.00;99.90;;;;;;5038370;28;20650;-67
2022/12/17 22:40:08;;;;;;;59.67;36.70;;;-4.00;99.90;;;;;;5032679;28;20314;-67
2022/12/17 22:45:19;;;;;;;53.58;31.33;;;-4.10;99.90;;;;;;5018826;28;20208;-70
2022/12/17 22:47:48;;;;;;;50.70;31.55;;;-4.10;99.90;;;;;;5024385;28;20278;-70
2022/12/17 22:50:15;;;;;;;57.17;35.90;;;-4.10;99.90;;;;;;5016311;28;20227;-68
2022/12/17 22:52:42;;;;;;;47.67;32.38;;;-4.00;99.90;;;;;;5030763;28;20220;-68
2022/12/17 22:55:09;;;;;;;56.28;33.35;;;-4.00;99.90;;;;;;5026161;28;20201;-69
2022/12/17 22:57:36;;;;;;;61.28;33.53;;;-4.00;99.90;;;;;;5023501;28;20247;-70
2022/12/17 23:00:10;;;;;;;57.20;33.15;;;-4.10;99.90;;;;;;5018407;28;20230;-71
2022/12/17 23:02:37;;;;;;;56.92;35.13;;;-4.10;99.90;;;;;;5029580;28;20204;-69
2022/12/17 23:05:06;;;;;;;63.03;36.13;;;-4.10;99.90;;;;;;5036617;28;20259;-68
2022/12/17 23:07:33;;;;;;;58.17;35.20;;;-4.20;99.90;;;;;;5044602;28;20298;-69
2022/12/17 23:10:00;;;;;;;45.65;29.08;;;-4.30;99.90;;;;;;5038107;28;20215;-66
2022/12/17 23:15:11;;;;;;;59.00;31.92;;;-4.40;99.90;;;;;;5021865;28;20251;-70
2022/12/17 23:17:38;;;;;;;47.65;32.35;;;-4.50;99.90;;;;;;5036076;28;20200;-67
2022/12/17 23:20:07;;;;;;;51.33;34.22;;;-4.40;99.90;;;;;;5026737;28;20219;-69
2022/12/17 23:22:34;;;;;;;53.75;33.95;;;-4.50;99.90;;;;;;5035624;28;20508;-69
2022/12/17 23:25:01;;;;;;;63.80;35.83;;;-4.60;99.90;;;;;;5041830;28;20290;-69
2022/12/17 23:27:28;;;;;;;52.90;33.08;;;-4.60;99.90;;;;;;5035439;28;20288;-70
2022/12/17 23:29:55;;;;;;;62.60;33.38;;;-4.70;99.90;;;;;;5025039;28;20226;-69
2022/12/17 23:32:22;;;;;;;53.55;34.40;;;-4.80;99.90;;;;;;5033681;28;20235;-70
2022/12/17 23:34:49;;;;;;;53.45;32.35;;;-4.80;99.90;;;;;;5034318;28;20290;-68
2022/12/17 23:37:17;;;;;;;60.25;35.25;;;-4.90;99.90;;;;;;5025796;28;20196;-69
2022/12/17 23:39:44;;;;;;;56.33;33.15;;;-4.90;99.90;;;;;;5017833;28;20235;-68
2022/12/17 23:42:11;;;;;;;55.45;32.55;;;-4.80;99.90;;;;;;5035128;28;20203;-70
2022/12/17 23:44:38;;;;;;;51.15;32.63;;;-4.80;99.90;;;;;;5038110;28;20291;-71
2022/12/17 23:47:05;;;;;;;55.95;35.08;;;-4.80;99.90;;;;;;5026884;28;20566;-70
2022/12/17 23:49:32;;;;;;;53.90;31.77;;;-4.80;99.90;;;;;;5021842;28;20234;-68
2022/12/17 23:51:59;;;;;;;55.78;32.72;;;-4.60;99.90;;;;;;5037172;28;20809;-70
2022/12/17 23:54:27;;;;;;;56.30;33.53;;;-4.60;99.90;;;;;;5027016;28;20666;-68
2022/12/17 23:56:54;;;;;;;68.85;32.25;;;-4.60;99.90;;;;;;5029098;28;20205;-69
2022/12/17 23:59:21;;;;;;;57.58;35.47;;;-4.60;99.90;;;;;;5045109;28;20223;-69
